Raleigh-Durham International, NC

2:00 AM EDT on June 24, 2018 (GMT -0400)
Raleigh-Durham International | | Change Station

Elev 433 ft 35.88 °N, 78.79 °W | Updated 9 minutes ago

Scattered Clouds
Scattered Clouds
74 °F
Feels Like 74 °F
N
6
Wind Variable Wind from WSW

Today
High -- | Low -- °F
--% Chance of Precip.
Yesterday
High -- | Low -- °F
Precip. -- in
Pressure 29.88 in
Visibility 10.0 miles
Clouds Scattered Clouds 25000 ft
Dew Point 69 °F
Humidity 85%
Rainfall 0.00 in
Snow Depth Not available.
5:59 AM 8:35 PM
Waxing Gibbous, 86% visible
METAR KRDU 240551Z 24005KT 10SM SCT250 23/21 A2989 RMK AO2 SLP117 T02330206 10294 20233 51007 $
Pressure 29.88 in
Visibility 10.0 miles
Clouds Scattered Clouds 25000 ft
Dew Point 69 °F
Humidity 85%
Rainfall 0.00 in
Snow Depth Not available.
5:59 AM 8:35 PM
Waxing Gibbous, 86% visible
METAR KRDU 240551Z 24005KT 10SM SCT250 23/21 A2989 RMK AO2 SLP117 T02330206 10294 20233 51007 $

Get Severe Weather Alerts

Thanks for signing up!

Be on the lookout for a verification email in your inbox.

You'll start receiving the daily forecast at 6 AM.

×

10-Day Weather Forecast

Almanac

Astronomy

Jun. 24, 2018 Rise Set
Actual Time
Civil Twilight
Nautical Twilight
Astronomical Twilight
Moon
Length of Visible Light
Length of Day
Tomorrow will be .
, % of the Moon is Illuminated

Today's Extremes

State Highs State Lows

Community

WunderPhotos

Category 6

Welcome to Category 6. This is the collective home for Weather Underground's featured writeups by Dr. Jeff Masters (right), Bob Henson (left), Chris Burt, and other regular contributors.

Nearby

Air Quality

  Air Quality AQ Index Pollutant
Not available.

Snow Depth

Station Depth Elevation

Earthquake Activity

City Distance Mag. Time & Date
Minimum magnitude displayed is 2.5.

Coastal Water Temperatures

Place Temperature

Stations

Nearby Weather Stations

Station Location Temp. Windchill Dew Point Humidity Wind Precip. Elev Updated Type
                   

Watches & Warnings

There are currently no watches in effect.